sensor_id;sensor_type;location;lat;lon;timestamp;P1;durP1;ratioP1;P2;durP2;ratioP2
35306;SDS011;21420;52.196;21.416;2023-07-28T00:01:35;5.80;;;5.20;;
35306;SDS011;21420;52.196;21.416;2023-07-28T00:04:02;8.30;;;5.10;;
35306;SDS011;21420;52.196;21.416;2023-07-28T00:06:33;6.40;;;5.40;;
35306;SDS011;21420;52.196;21.416;2023-07-28T00:09:02;5.90;;;5.10;;
35306;SDS011;21420;52.196;21.416;2023-07-28T00:11:29;7.20;;;5.10;;
35306;SDS011;21420;52.196;21.416;2023-07-28T00:13:55;8.00;;;5.00;;
35306;SDS011;21420;52.196;21.416;2023-07-28T00:16:22;8.40;;;4.70;;
35306;SDS011;21420;52.196;21.416;2023-07-28T00:18:49;5.60;;;5.00;;
35306;SDS011;21420;52.196;21.416;2023-07-28T00:21:15;6.10;;;4.50;;
35306;SDS011;21420;52.196;21.416;2023-07-28T00:23:42;5.00;;;4.50;;
35306;SDS011;21420;52.196;21.416;2023-07-28T00:26:09;6.70;;;4.60;;
35306;SDS011;21420;52.196;21.416;2023-07-28T00:28:35;7.20;;;4.90;;
35306;SDS011;21420;52.196;21.416;2023-07-28T00:31:02;10.40;;;5.10;;
35306;SDS011;21420;52.196;21.416;2023-07-28T00:33:29;5.80;;;4.30;;
35306;SDS011;21420;52.196;21.416;2023-07-28T00:35:56;7.20;;;5.70;;
35306;SDS011;21420;52.196;21.416;2023-07-28T00:38:22;5.60;;;5.00;;
35306;SDS011;21420;52.196;21.416;2023-07-28T00:40:49;6.20;;;4.80;;
35306;SDS011;21420;52.196;21.416;2023-07-28T00:43:16;6.90;;;5.00;;
35306;SDS011;21420;52.196;21.416;2023-07-28T00:45:42;5.30;;;4.60;;
35306;SDS011;21420;52.196;21.416;2023-07-28T00:48:11;6.00;;;4.50;;
35306;SDS011;21420;52.196;21.416;2023-07-28T00:50:41;6.20;;;4.70;;
35306;SDS011;21420;52.196;21.416;2023-07-28T00:53:08;6.20;;;4.70;;
35306;SDS011;21420;52.196;21.416;2023-07-28T00:55:35;5.20;;;4.20;;
35306;SDS011;21420;52.196;21.416;2023-07-28T00:58:02;5.20;;;4.70;;
35306;SDS011;21420;52.196;21.416;2023-07-28T01:00:28;4.90;;;4.40;;
35306;SDS011;21420;52.196;21.416;2023-07-28T01:02:56;4.90;;;4.50;;
35306;SDS011;21420;52.196;21.416;2023-07-28T01:05:25;5.10;;;4.40;;
35306;SDS011;21420;52.196;21.416;2023-07-28T01:08:09;5.80;;;5.10;;
35306;SDS011;21420;52.196;21.416;2023-07-28T01:10:42;6.20;;;4.90;;
35306;SDS011;21420;52.196;21.416;2023-07-28T01:13:10;6.20;;;5.10;;
35306;SDS011;21420;52.196;21.416;2023-07-28T01:15:36;9.40;;;4.70;;
35306;SDS011;21420;52.196;21.416;2023-07-28T01:18:03;5.30;;;4.70;;
35306;SDS011;21420;52.196;21.416;2023-07-28T01:20:30;5.80;;;4.60;;
35306;SDS011;21420;52.196;21.416;2023-07-28T01:23:08;7.40;;;4.80;;
35306;SDS011;21420;52.196;21.416;2023-07-28T01:25:43;5.30;;;4.80;;
35306;SDS011;21420;52.196;21.416;2023-07-28T01:28:13;4.80;;;4.10;;
35306;SDS011;21420;52.196;21.416;2023-07-28T01:30:43;6.50;;;4.80;;
35306;SDS011;21420;52.196;21.416;2023-07-28T01:33:10;6.60;;;4.10;;
35306;SDS011;21420;52.196;21.416;2023-07-28T01:35:37;6.70;;;4.60;;
35306;SDS011;21420;52.196;21.416;2023-07-28T01:38:05;5.80;;;4.60;;
35306;SDS011;21420;52.196;21.416;2023-07-28T01:40:32;6.90;;;4.80;;
35306;SDS011;21420;52.196;21.416;2023-07-28T01:42:58;6.90;;;5.00;;
35306;SDS011;21420;52.196;21.416;2023-07-28T01:45:25;5.90;;;5.30;;
35306;SDS011;21420;52.196;21.416;2023-07-28T01:47:52;5.90;;;5.00;;
35306;SDS011;21420;52.196;21.416;2023-07-28T01:50:18;8.40;;;4.40;;
35306;SDS011;21420;52.196;21.416;2023-07-28T01:52:45;7.80;;;5.10;;
35306;SDS011;21420;52.196;21.416;2023-07-28T01:55:12;8.70;;;4.40;;
35306;SDS011;21420;52.196;21.416;2023-07-28T01:57:39;9.20;;;5.20;;
35306;SDS011;21420;52.196;21.416;2023-07-28T02:00:06;6.60;;;4.70;;
35306;SDS011;21420;52.196;21.416;2023-07-28T02:02:39;6.80;;;4.70;;
35306;SDS011;21420;52.196;21.416;2023-07-28T02:05:06;6.50;;;4.80;;
35306;SDS011;21420;52.196;21.416;2023-07-28T02:07:33;5.20;;;4.40;;
35306;SDS011;21420;52.196;21.416;2023-07-28T02:10:00;5.60;;;4.70;;
35306;SDS011;21420;52.196;21.416;2023-07-28T02:12:26;7.40;;;5.00;;
35306;SDS011;21420;52.196;21.416;2023-07-28T02:14:53;6.50;;;4.80;;
35306;SDS011;21420;52.196;21.416;2023-07-28T02:17:25;5.50;;;4.90;;
35306;SDS011;21420;52.196;21.416;2023-07-28T02:19:51;8.70;;;5.00;;
35306;SDS011;21420;52.196;21.416;2023-07-28T02:22:18;5.40;;;4.50;;
35306;SDS011;21420;52.196;21.416;2023-07-28T02:24:45;5.90;;;4.90;;
35306;SDS011;21420;52.196;21.416;2023-07-28T02:27:11;5.70;;;4.70;;
35306;SDS011;21420;52.196;21.416;2023-07-28T02:29:38;5.90;;;4.90;;
35306;SDS011;21420;52.196;21.416;2023-07-28T02:32:05;6.40;;;4.60;;
35306;SDS011;21420;52.196;21.416;2023-07-28T02:34:32;9.00;;;5.10;;
35306;SDS011;21420;52.196;21.416;2023-07-28T02:36:59;7.50;;;4.70;;
35306;SDS011;21420;52.196;21.416;2023-07-28T02:39:26;5.10;;;4.40;;
35306;SDS011;21420;52.196;21.416;2023-07-28T02:41:52;7.10;;;4.90;;
35306;SDS011;21420;52.196;21.416;2023-07-28T02:44:19;9.80;;;5.50;;
35306;SDS011;21420;52.196;21.416;2023-07-28T02:46:45;7.30;;;5.50;;
35306;SDS011;21420;52.196;21.416;2023-07-28T02:49:12;6.70;;;5.90;;
35306;SDS011;21420;52.196;21.416;2023-07-28T02:51:39;6.30;;;5.50;;
35306;SDS011;21420;52.196;21.416;2023-07-28T02:54:06;9.50;;;6.20;;
35306;SDS011;21420;52.196;21.416;2023-07-28T02:56:32;7.10;;;6.00;;
35306;SDS011;21420;52.196;21.416;2023-07-28T02:59:05;6.80;;;5.60;;
35306;SDS011;21420;52.196;21.416;2023-07-28T03:01:31;8.20;;;5.00;;
35306;SDS011;21420;52.196;21.416;2023-07-28T03:04:02;7.00;;;4.90;;
35306;SDS011;21420;52.196;21.416;2023-07-28T03:06:38;7.00;;;4.90;;
35306;SDS011;21420;52.196;21.416;2023-07-28T03:09:05;6.50;;;5.10;;
35306;SDS011;21420;52.196;21.416;2023-07-28T03:11:43;6.70;;;5.50;;
35306;SDS011;21420;52.196;21.416;2023-07-28T03:14:10;6.00;;;5.30;;
35306;SDS011;21420;52.196;21.416;2023-07-28T03:16:39;6.00;;;5.40;;
35306;SDS011;21420;52.196;21.416;2023-07-28T03:19:07;7.60;;;5.60;;
35306;SDS011;21420;52.196;21.416;2023-07-28T03:21:34;7.60;;;5.70;;
35306;SDS011;21420;52.196;21.416;2023-07-28T03:24:04;8.50;;;6.10;;
35306;SDS011;21420;52.196;21.416;2023-07-28T03:26:31;8.80;;;5.90;;
35306;SDS011;21420;52.196;21.416;2023-07-28T03:29:03;9.50;;;5.60;;
35306;SDS011;21420;52.196;21.416;2023-07-28T03:31:30;6.20;;;5.20;;
35306;SDS011;21420;52.196;21.416;2023-07-28T03:33:57;6.10;;;5.40;;
35306;SDS011;21420;52.196;21.416;2023-07-28T03:36:24;6.50;;;5.60;;
35306;SDS011;21420;52.196;21.416;2023-07-28T03:38:51;7.10;;;5.50;;
35306;SDS011;21420;52.196;21.416;2023-07-28T03:41:17;6.60;;;5.40;;
35306;SDS011;21420;52.196;21.416;2023-07-28T03:43:44;6.50;;;5.10;;
35306;SDS011;21420;52.196;21.416;2023-07-28T03:46:12;6.80;;;5.20;;
35306;SDS011;21420;52.196;21.416;2023-07-28T03:48:38;5.60;;;5.10;;
35306;SDS011;21420;52.196;21.416;2023-07-28T03:51:05;6.20;;;5.10;;
35306;SDS011;21420;52.196;21.416;2023-07-28T03:53:32;6.70;;;5.70;;
35306;SDS011;21420;52.196;21.416;2023-07-28T03:56:01;5.70;;;5.10;;
35306;SDS011;21420;52.196;21.416;2023-07-28T03:58:29;6.60;;;5.20;;
35306;SDS011;21420;52.196;21.416;2023-07-28T04:00:56;7.40;;;5.30;;
35306;SDS011;21420;52.196;21.416;2023-07-28T04:03:23;5.40;;;4.90;;
35306;SDS011;21420;52.196;21.416;2023-07-28T04:05:49;5.20;;;4.70;;
35306;SDS011;21420;52.196;21.416;2023-07-28T04:08:16;5.90;;;5.20;;
35306;SDS011;21420;52.196;21.416;2023-07-28T04:10:43;6.10;;;5.10;;
35306;SDS011;21420;52.196;21.416;2023-07-28T04:13:10;7.00;;;5.40;;
35306;SDS011;21420;52.196;21.416;2023-07-28T04:15:37;7.40;;;5.60;;
35306;SDS011;21420;52.196;21.416;2023-07-28T04:18:03;5.40;;;4.90;;
35306;SDS011;21420;52.196;21.416;2023-07-28T04:20:30;7.20;;;4.80;;
35306;SDS011;21420;52.196;21.416;2023-07-28T04:22:57;5.70;;;4.90;;
35306;SDS011;21420;52.196;21.416;2023-07-28T04:25:24;7.50;;;4.90;;
35306;SDS011;21420;52.196;21.416;2023-07-28T04:27:50;10.30;;;5.60;;
35306;SDS011;21420;52.196;21.416;2023-07-28T04:30:17;6.80;;;4.80;;
35306;SDS011;21420;52.196;21.416;2023-07-28T04:32:44;6.10;;;4.90;;
35306;SDS011;21420;52.196;21.416;2023-07-28T04:35:15;9.10;;;5.00;;
35306;SDS011;21420;52.196;21.416;2023-07-28T04:38:01;8.10;;;5.30;;
35306;SDS011;21420;52.196;21.416;2023-07-28T04:40:38;6.30;;;5.10;;
35306;SDS011;21420;52.196;21.416;2023-07-28T04:43:05;5.20;;;4.70;;
35306;SDS011;21420;52.196;21.416;2023-07-28T04:45:31;6.00;;;4.70;;
35306;SDS011;21420;52.196;21.416;2023-07-28T04:47:59;6.00;;;4.60;;
35306;SDS011;21420;52.196;21.416;2023-07-28T04:50:26;8.70;;;5.60;;
35306;SDS011;21420;52.196;21.416;2023-07-28T04:53:16;5.90;;;4.60;;
35306;SDS011;21420;52.196;21.416;2023-07-28T04:56:08;5.50;;;4.50;;
35306;SDS011;21420;52.196;21.416;2023-07-28T04:58:35;4.60;;;4.10;;
35306;SDS011;21420;52.196;21.416;2023-07-28T05:01:02;7.30;;;4.60;;
35306;SDS011;21420;52.196;21.416;2023-07-28T05:03:29;5.70;;;4.40;;
35306;SDS011;21420;52.196;21.416;2023-07-28T05:05:59;6.30;;;4.60;;
35306;SDS011;21420;52.196;21.416;2023-07-28T05:08:25;7.90;;;4.70;;
35306;SDS011;21420;52.196;21.416;2023-07-28T05:10:53;6.80;;;4.50;;
35306;SDS011;21420;52.196;21.416;2023-07-28T05:13:20;6.30;;;4.60;;
35306;SDS011;21420;52.196;21.416;2023-07-28T05:15:52;5.10;;;3.90;;
35306;SDS011;21420;52.196;21.416;2023-07-28T05:18:39;7.70;;;4.10;;
35306;SDS011;21420;52.196;21.416;2023-07-28T05:21:41;6.40;;;4.60;;
35306;SDS011;21420;52.196;21.416;2023-07-28T05:24:09;5.00;;;4.50;;
35306;SDS011;21420;52.196;21.416;2023-07-28T05:26:36;6.20;;;4.50;;
35306;SDS011;21420;52.196;21.416;2023-07-28T05:29:03;9.40;;;4.30;;
35306;SDS011;21420;52.196;21.416;2023-07-28T05:31:29;6.40;;;4.60;;
35306;SDS011;21420;52.196;21.416;2023-07-28T05:33:56;4.90;;;4.40;;
35306;SDS011;21420;52.196;21.416;2023-07-28T05:36:23;6.30;;;3.70;;
35306;SDS011;21420;52.196;21.416;2023-07-28T05:38:51;6.70;;;4.50;;
35306;SDS011;21420;52.196;21.416;2023-07-28T05:41:20;6.50;;;4.70;;
35306;SDS011;21420;52.196;21.416;2023-07-28T05:43:47;4.30;;;3.90;;
35306;SDS011;21420;52.196;21.416;2023-07-28T05:46:17;4.90;;;3.80;;
35306;SDS011;21420;52.196;21.416;2023-07-28T05:48:46;4.60;;;4.00;;
35306;SDS011;21420;52.196;21.416;2023-07-28T05:51:13;4.60;;;4.00;;
35306;SDS011;21420;52.196;21.416;2023-07-28T05:53:39;6.30;;;4.40;;
35306;SDS011;21420;52.196;21.416;2023-07-28T05:56:07;6.50;;;4.40;;
35306;SDS011;21420;52.196;21.416;2023-07-28T05:58:33;6.60;;;4.40;;
35306;SDS011;21420;52.196;21.416;2023-07-28T06:01:00;4.80;;;4.10;;
35306;SDS011;21420;52.196;21.416;2023-07-28T06:03:47;7.30;;;3.80;;
35306;SDS011;21420;52.196;21.416;2023-07-28T06:06:19;6.70;;;4.50;;
35306;SDS011;21420;52.196;21.416;2023-07-28T06:08:45;5.60;;;4.20;;
35306;SDS011;21420;52.196;21.416;2023-07-28T06:11:12;7.80;;;5.40;;
35306;SDS011;21420;52.196;21.416;2023-07-28T06:13:39;4.80;;;4.00;;
35306;SDS011;21420;52.196;21.416;2023-07-28T06:16:06;4.70;;;3.70;;
35306;SDS011;21420;52.196;21.416;2023-07-28T06:18:33;5.30;;;3.80;;
35306;SDS011;21420;52.196;21.416;2023-07-28T06:21:07;5.70;;;3.80;;
35306;SDS011;21420;52.196;21.416;2023-07-28T06:23:33;4.30;;;3.40;;
35306;SDS011;21420;52.196;21.416;2023-07-28T06:26:01;4.50;;;3.60;;
35306;SDS011;21420;52.196;21.416;2023-07-28T06:28:27;5.20;;;3.80;;
35306;SDS011;21420;52.196;21.416;2023-07-28T06:30:54;4.30;;;3.80;;
35306;SDS011;21420;52.196;21.416;2023-07-28T06:33:24;6.00;;;3.90;;
35306;SDS011;21420;52.196;21.416;2023-07-28T06:35:51;4.20;;;3.30;;
35306;SDS011;21420;52.196;21.416;2023-07-28T06:38:18;5.90;;;3.40;;
35306;SDS011;21420;52.196;21.416;2023-07-28T06:40:45;6.80;;;3.70;;
35306;SDS011;21420;52.196;21.416;2023-07-28T06:43:12;5.90;;;3.80;;
35306;SDS011;21420;52.196;21.416;2023-07-28T06:45:39;5.50;;;3.80;;
35306;SDS011;21420;52.196;21.416;2023-07-28T06:48:06;6.70;;;4.10;;
35306;SDS011;21420;52.196;21.416;2023-07-28T06:50:34;3.10;;;2.80;;
35306;SDS011;21420;52.196;21.416;2023-07-28T06:53:01;4.20;;;3.40;;
35306;SDS011;21420;52.196;21.416;2023-07-28T06:55:28;5.10;;;3.30;;
35306;SDS011;21420;52.196;21.416;2023-07-28T06:57:54;4.50;;;3.80;;
35306;SDS011;21420;52.196;21.416;2023-07-28T07:00:21;5.00;;;3.70;;
35306;SDS011;21420;52.196;21.416;2023-07-28T07:02:48;4.80;;;3.70;;
35306;SDS011;21420;52.196;21.416;2023-07-28T07:05:15;3.70;;;3.30;;
35306;SDS011;21420;52.196;21.416;2023-07-28T07:07:42;3.40;;;3.10;;
35306;SDS011;21420;52.196;21.416;2023-07-28T07:10:08;6.10;;;3.50;;
35306;SDS011;21420;52.196;21.416;2023-07-28T07:12:35;4.40;;;3.10;;
35306;SDS011;21420;52.196;21.416;2023-07-28T07:15:03;4.50;;;3.60;;
35306;SDS011;21420;52.196;21.416;2023-07-28T07:17:31;5.00;;;3.70;;
35306;SDS011;21420;52.196;21.416;2023-07-28T07:19:58;6.00;;;3.40;;
35306;SDS011;21420;52.196;21.416;2023-07-28T07:22:25;3.50;;;3.20;;
35306;SDS011;21420;52.196;21.416;2023-07-28T07:24:52;9.80;;;4.00;;
35306;SDS011;21420;52.196;21.416;2023-07-28T07:27:18;4.40;;;3.10;;
35306;SDS011;21420;52.196;21.416;2023-07-28T07:29:45;5.00;;;3.70;;
35306;SDS011;21420;52.196;21.416;2023-07-28T07:32:12;4.40;;;3.30;;
35306;SDS011;21420;52.196;21.416;2023-07-28T07:34:38;3.80;;;3.30;;
35306;SDS011;21420;52.196;21.416;2023-07-28T07:37:05;4.60;;;3.50;;
35306;SDS011;21420;52.196;21.416;2023-07-28T07:39:32;6.00;;;3.60;;
35306;SDS011;21420;52.196;21.416;2023-07-28T07:42:00;5.30;;;3.60;;
35306;SDS011;21420;52.196;21.416;2023-07-28T07:44:27;5.10;;;3.80;;
35306;SDS011;21420;52.196;21.416;2023-07-28T07:46:54;3.80;;;3.30;;
35306;SDS011;21420;52.196;21.416;2023-07-28T07:49:22;4.00;;;3.40;;
35306;SDS011;21420;52.196;21.416;2023-07-28T07:51:49;4.20;;;3.20;;
35306;SDS011;21420;52.196;21.416;2023-07-28T07:54:16;4.60;;;3.30;;
35306;SDS011;21420;52.196;21.416;2023-07-28T07:56:44;5.60;;;3.70;;
35306;SDS011;21420;52.196;21.416;2023-07-28T07:59:13;5.30;;;4.00;;
35306;SDS011;21420;52.196;21.416;2023-07-28T08:01:40;4.50;;;3.90;;
35306;SDS011;21420;52.196;21.416;2023-07-28T08:04:07;3.90;;;3.50;;
35306;SDS011;21420;52.196;21.416;2023-07-28T08:06:34;6.10;;;4.10;;
35306;SDS011;21420;52.196;21.416;2023-07-28T08:09:01;5.30;;;4.10;;
35306;SDS011;21420;52.196;21.416;2023-07-28T08:11:28;5.30;;;4.80;;
35306;SDS011;21420;52.196;21.416;2023-07-28T08:13:55;7.80;;;4.30;;
35306;SDS011;21420;52.196;21.416;2023-07-28T08:16:22;4.90;;;4.40;;
35306;SDS011;21420;52.196;21.416;2023-07-28T08:18:48;5.90;;;4.30;;
35306;SDS011;21420;52.196;21.416;2023-07-28T08:21:15;4.60;;;4.00;;
35306;SDS011;21420;52.196;21.416;2023-07-28T08:23:42;4.80;;;3.90;;
35306;SDS011;21420;52.196;21.416;2023-07-28T08:26:09;4.40;;;3.90;;
35306;SDS011;21420;52.196;21.416;2023-07-28T08:28:36;5.80;;;4.10;;
35306;SDS011;21420;52.196;21.416;2023-07-28T08:31:02;4.10;;;3.70;;
35306;SDS011;21420;52.196;21.416;2023-07-28T08:33:30;4.50;;;4.10;;
35306;SDS011;21420;52.196;21.416;2023-07-28T08:35:57;5.80;;;4.10;;
35306;SDS011;21420;52.196;21.416;2023-07-28T08:38:28;4.70;;;4.20;;
35306;SDS011;21420;52.196;21.416;2023-07-28T08:40:56;5.40;;;4.10;;
35306;SDS011;21420;52.196;21.416;2023-07-28T08:43:25;4.90;;;4.10;;
35306;SDS011;21420;52.196;21.416;2023-07-28T08:45:51;5.40;;;3.70;;
35306;SDS011;21420;52.196;21.416;2023-07-28T08:48:21;4.00;;;3.70;;
35306;SDS011;21420;52.196;21.416;2023-07-28T08:50:48;4.90;;;3.40;;
35306;SDS011;21420;52.196;21.416;2023-07-28T08:53:16;4.40;;;3.80;;
35306;SDS011;21420;52.196;21.416;2023-07-28T08:55:43;5.00;;;3.70;;
35306;SDS011;21420;52.196;21.416;2023-07-28T08:58:13;4.20;;;3.80;;
35306;SDS011;21420;52.196;21.416;2023-07-28T09:00:51;3.80;;;3.50;;
35306;SDS011;21420;52.196;21.416;2023-07-28T09:03:19;3.50;;;3.20;;
35306;SDS011;21420;52.196;21.416;2023-07-28T09:05:47;3.70;;;3.40;;
35306;SDS011;21420;52.196;21.416;2023-07-28T09:08:15;4.10;;;3.70;;
35306;SDS011;21420;52.196;21.416;2023-07-28T09:10:43;4.80;;;3.30;;
35306;SDS011;21420;52.196;21.416;2023-07-28T09:13:11;4.90;;;3.20;;
35306;SDS011;21420;52.196;21.416;2023-07-28T09:15:43;6.10;;;3.30;;
35306;SDS011;21420;52.196;21.416;2023-07-28T09:18:12;4.30;;;3.40;;
35306;SDS011;21420;52.196;21.416;2023-07-28T09:20:43;5.00;;;3.00;;
35306;SDS011;21420;52.196;21.416;2023-07-28T09:23:12;6.00;;;3.60;;
35306;SDS011;21420;52.196;21.416;2023-07-28T09:25:40;4.60;;;3.40;;
35306;SDS011;21420;52.196;21.416;2023-07-28T09:28:07;5.70;;;3.90;;
35306;SDS011;21420;52.196;21.416;2023-07-28T09:30:45;4.40;;;3.40;;
35306;SDS011;21420;52.196;21.416;2023-07-28T09:33:33;4.20;;;3.60;;
35306;SDS011;21420;52.196;21.416;2023-07-28T09:36:06;4.60;;;3.50;;
35306;SDS011;21420;52.196;21.416;2023-07-28T09:38:38;6.30;;;4.30;;
35306;SDS011;21420;52.196;21.416;2023-07-28T09:41:08;4.70;;;3.50;;
35306;SDS011;21420;52.196;21.416;2023-07-28T09:43:37;4.10;;;3.70;;
35306;SDS011;21420;52.196;21.416;2023-07-28T09:46:05;3.50;;;3.20;;
35306;SDS011;21420;52.196;21.416;2023-07-28T09:48:34;4.50;;;3.70;;
35306;SDS011;21420;52.196;21.416;2023-07-28T09:51:06;3.60;;;3.30;;
35306;SDS011;21420;52.196;21.416;2023-07-28T09:53:38;5.40;;;3.70;;
35306;SDS011;21420;52.196;21.416;2023-07-28T09:56:13;4.40;;;3.80;;
35306;SDS011;21420;52.196;21.416;2023-07-28T09:58:44;5.60;;;4.00;;
35306;SDS011;21420;52.196;21.416;2023-07-28T10:01:19;4.20;;;3.80;;
35306;SDS011;21420;52.196;21.416;2023-07-28T10:03:48;4.90;;;3.50;;
35306;SDS011;21420;52.196;21.416;2023-07-28T10:06:16;3.90;;;3.50;;
35306;SDS011;21420;52.196;21.416;2023-07-28T10:08:44;4.90;;;4.10;;
35306;SDS011;21420;52.196;21.416;2023-07-28T10:11:12;7.10;;;4.00;;
35306;SDS011;21420;52.196;21.416;2023-07-28T10:13:40;5.50;;;4.20;;
35306;SDS011;21420;52.196;21.416;2023-07-28T10:16:09;4.30;;;3.90;;
35306;SDS011;21420;52.196;21.416;2023-07-28T10:18:36;4.50;;;4.00;;
35306;SDS011;21420;52.196;21.416;2023-07-28T10:21:05;4.90;;;3.90;;
35306;SDS011;21420;52.196;21.416;2023-07-28T10:23:34;5.00;;;4.20;;
35306;SDS011;21420;52.196;21.416;2023-07-28T10:26:04;6.00;;;4.70;;
35306;SDS011;21420;52.196;21.416;2023-07-28T10:28:36;4.80;;;4.20;;
35306;SDS011;21420;52.196;21.416;2023-07-28T10:31:10;6.00;;;3.60;;
35306;SDS011;21420;52.196;21.416;2023-07-28T10:33:38;6.00;;;4.00;;
35306;SDS011;21420;52.196;21.416;2023-07-28T10:36:15;6.40;;;4.20;;
35306;SDS011;21420;52.196;21.416;2023-07-28T10:38:44;4.70;;;4.00;;
35306;SDS011;21420;52.196;21.416;2023-07-28T10:41:16;4.40;;;4.00;;
35306;SDS011;21420;52.196;21.416;2023-07-28T10:43:44;6.90;;;4.20;;
35306;SDS011;21420;52.196;21.416;2023-07-28T10:46:15;5.50;;;4.10;;
35306;SDS011;21420;52.196;21.416;2023-07-28T10:48:44;6.00;;;4.00;;
35306;SDS011;21420;52.196;21.416;2023-07-28T10:53:54;6.80;;;4.30;;
35306;SDS011;21420;52.196;21.416;2023-07-28T10:56:22;4.50;;;4.10;;
35306;SDS011;21420;52.196;21.416;2023-07-28T10:58:59;5.60;;;4.40;;
35306;SDS011;21420;52.196;21.416;2023-07-28T11:01:30;5.90;;;4.20;;
35306;SDS011;21420;52.196;21.416;2023-07-28T11:04:11;5.00;;;3.80;;
35306;SDS011;21420;52.196;21.416;2023-07-28T11:06:43;4.60;;;4.10;;
35306;SDS011;21420;52.196;21.416;2023-07-28T11:09:12;4.50;;;4.00;;
35306;SDS011;21420;52.196;21.416;2023-07-28T11:11:41;5.40;;;4.10;;
35306;SDS011;21420;52.196;21.416;2023-07-28T11:14:13;5.70;;;4.60;;
35306;SDS011;21420;52.196;21.416;2023-07-28T11:16:45;5.20;;;4.00;;
35306;SDS011;21420;52.196;21.416;2023-07-28T11:19:15;6.90;;;4.30;;
35306;SDS011;21420;52.196;21.416;2023-07-28T11:21:54;4.50;;;4.10;;
35306;SDS011;21420;52.196;21.416;2023-07-28T11:24:21;5.50;;;4.90;;
35306;SDS011;21420;52.196;21.416;2023-07-28T11:26:50;4.40;;;4.00;;
35306;SDS011;21420;52.196;21.416;2023-07-28T11:29:20;4.80;;;3.90;;
35306;SDS011;21420;52.196;21.416;2023-07-28T11:31:47;6.70;;;4.40;;
35306;SDS011;21420;52.196;21.416;2023-07-28T11:34:15;4.30;;;3.90;;
35306;SDS011;21420;52.196;21.416;2023-07-28T11:36:43;4.30;;;3.90;;
35306;SDS011;21420;52.196;21.416;2023-07-28T11:39:10;6.00;;;4.10;;
35306;SDS011;21420;52.196;21.416;2023-07-28T11:41:37;5.10;;;4.60;;
35306;SDS011;21420;52.196;21.416;2023-07-28T11:44:06;8.80;;;4.70;;
35306;SDS011;21420;52.196;21.416;2023-07-28T11:46:34;6.00;;;4.20;;
35306;SDS011;21420;52.196;21.416;2023-07-28T11:51:46;4.40;;;4.00;;
35306;SDS011;21420;52.196;21.416;2023-07-28T11:54:18;4.40;;;3.90;;
35306;SDS011;21420;52.196;21.416;2023-07-28T11:56:49;6.30;;;4.60;;
35306;SDS011;21420;52.196;21.416;2023-07-28T11:59:17;5.20;;;4.30;;
35306;SDS011;21420;52.196;21.416;2023-07-28T12:04:25;4.90;;;3.90;;
35306;SDS011;21420;52.196;21.416;2023-07-28T12:07:00;5.40;;;4.20;;
35306;SDS011;21420;52.196;21.416;2023-07-28T12:12:38;7.30;;;4.00;;
35306;SDS011;21420;52.196;21.416;2023-07-28T12:18:05;7.40;;;3.70;;
35306;SDS011;21420;52.196;21.416;2023-07-28T12:20:46;4.60;;;4.00;;
35306;SDS011;21420;52.196;21.416;2023-07-28T12:23:15;4.20;;;3.80;;
35306;SDS011;21420;52.196;21.416;2023-07-28T12:25:51;4.20;;;3.80;;
35306;SDS011;21420;52.196;21.416;2023-07-28T12:28:20;4.90;;;3.70;;
35306;SDS011;21420;52.196;21.416;2023-07-28T12:30:47;6.80;;;4.00;;
35306;SDS011;21420;52.196;21.416;2023-07-28T12:33:19;4.20;;;3.50;;
35306;SDS011;21420;52.196;21.416;2023-07-28T12:35:48;5.20;;;3.90;;
35306;SDS011;21420;52.196;21.416;2023-07-28T12:38:17;4.60;;;3.60;;
35306;SDS011;21420;52.196;21.416;2023-07-28T12:43:16;3.60;;;3.30;;
35306;SDS011;21420;52.196;21.416;2023-07-28T12:45:46;5.70;;;3.80;;
35306;SDS011;21420;52.196;21.416;2023-07-28T12:48:15;4.00;;;3.10;;
35306;SDS011;21420;52.196;21.416;2023-07-28T12:50:45;4.50;;;4.10;;
35306;SDS011;21420;52.196;21.416;2023-07-28T12:53:13;5.20;;;3.60;;
35306;SDS011;21420;52.196;21.416;2023-07-28T12:55:44;6.00;;;3.10;;
35306;SDS011;21420;52.196;21.416;2023-07-28T13:00:44;4.70;;;4.10;;
35306;SDS011;21420;52.196;21.416;2023-07-28T13:03:13;4.70;;;3.70;;
35306;SDS011;21420;52.196;21.416;2023-07-28T13:05:40;3.40;;;3.10;;
35306;SDS011;21420;52.196;21.416;2023-07-28T13:10:37;3.80;;;3.30;;
35306;SDS011;21420;52.196;21.416;2023-07-28T13:13:07;4.20;;;3.00;;
35306;SDS011;21420;52.196;21.416;2023-07-28T13:15:38;3.70;;;3.10;;
35306;SDS011;21420;52.196;21.416;2023-07-28T13:18:05;3.40;;;3.00;;
35306;SDS011;21420;52.196;21.416;2023-07-28T13:20:32;3.00;;;2.70;;
35306;SDS011;21420;52.196;21.416;2023-07-28T13:22:59;4.60;;;2.40;;
35306;SDS011;21420;52.196;21.416;2023-07-28T13:25:26;3.50;;;2.20;;
35306;SDS011;21420;52.196;21.416;2023-07-28T13:27:52;2.10;;;1.70;;
35306;SDS011;21420;52.196;21.416;2023-07-28T13:30:20;2.20;;;1.90;;
35306;SDS011;21420;52.196;21.416;2023-07-28T13:32:47;1.90;;;1.70;;
35306;SDS011;21420;52.196;21.416;2023-07-28T13:35:14;3.30;;;2.40;;
35306;SDS011;21420;52.196;21.416;2023-07-28T13:37:41;2.90;;;1.60;;
35306;SDS011;21420;52.196;21.416;2023-07-28T13:40:08;2.00;;;1.90;;
35306;SDS011;21420;52.196;21.416;2023-07-28T13:42:38;2.90;;;1.70;;
35306;SDS011;21420;52.196;21.416;2023-07-28T13:45:05;8.70;;;5.50;;
35306;SDS011;21420;52.196;21.416;2023-07-28T13:47:32;2.80;;;2.50;;
35306;SDS011;21420;52.196;21.416;2023-07-28T13:49:59;3.10;;;2.80;;
35306;SDS011;21420;52.196;21.416;2023-07-28T13:52:26;6.70;;;5.70;;
35306;SDS011;21420;52.196;21.416;2023-07-28T13:54:53;7.10;;;3.00;;
35306;SDS011;21420;52.196;21.416;2023-07-28T13:57:23;5.40;;;4.90;;
35306;SDS011;21420;52.196;21.416;2023-07-28T13:59:50;7.50;;;5.60;;
35306;SDS011;21420;52.196;21.416;2023-07-28T14:02:17;2.70;;;2.30;;
35306;SDS011;21420;52.196;21.416;2023-07-28T14:04:45;4.20;;;3.10;;
35306;SDS011;21420;52.196;21.416;2023-07-28T14:07:11;5.60;;;3.50;;
35306;SDS011;21420;52.196;21.416;2023-07-28T14:09:38;6.70;;;4.40;;
35306;SDS011;21420;52.196;21.416;2023-07-28T14:12:06;5.10;;;3.40;;
35306;SDS011;21420;52.196;21.416;2023-07-28T14:14:33;4.50;;;3.30;;
35306;SDS011;21420;52.196;21.416;2023-07-28T14:17:00;4.80;;;4.10;;
35306;SDS011;21420;52.196;21.416;2023-07-28T14:19:27;2.50;;;2.30;;
35306;SDS011;21420;52.196;21.416;2023-07-28T14:21:53;3.70;;;2.90;;
35306;SDS011;21420;52.196;21.416;2023-07-28T14:24:20;3.90;;;2.60;;
35306;SDS011;21420;52.196;21.416;2023-07-28T14:26:47;3.20;;;2.90;;
35306;SDS011;21420;52.196;21.416;2023-07-28T14:29:13;2.70;;;1.60;;
35306;SDS011;21420;52.196;21.416;2023-07-28T14:31:40;1.70;;;1.60;;
35306;SDS011;21420;52.196;21.416;2023-07-28T14:34:07;2.20;;;1.90;;
35306;SDS011;21420;52.196;21.416;2023-07-28T14:36:34;3.30;;;1.90;;
35306;SDS011;21420;52.196;21.416;2023-07-28T14:39:02;2.20;;;2.00;;
35306;SDS011;21420;52.196;21.416;2023-07-28T14:41:29;2.00;;;1.80;;
35306;SDS011;21420;52.196;21.416;2023-07-28T14:43:56;2.40;;;2.10;;
35306;SDS011;21420;52.196;21.416;2023-07-28T14:46:24;2.00;;;1.40;;
35306;SDS011;21420;52.196;21.416;2023-07-28T14:48:52;1.40;;;1.10;;
35306;SDS011;21420;52.196;21.416;2023-07-28T14:51:20;7.00;;;4.30;;
35306;SDS011;21420;52.196;21.416;2023-07-28T14:53:47;1.70;;;1.40;;
35306;SDS011;21420;52.196;21.416;2023-07-28T14:56:15;4.90;;;3.30;;
35306;SDS011;21420;52.196;21.416;2023-07-28T14:58:43;2.00;;;1.40;;
35306;SDS011;21420;52.196;21.416;2023-07-28T15:01:11;11.30;;;5.80;;
35306;SDS011;21420;52.196;21.416;2023-07-28T15:03:38;1.30;;;1.20;;